Latest Weather Observations for Wadeye (Port Keats)

IDD60801

Issued at 10:01 pm CST Thursday 20 July 2017 (issued every 30 minutes, with the page automatically refreshed every 10 minutes)

About weather observations | Map of weather stations | Latest weather observations for NT | Other Formats
Station Details ID: 014948 Name: PORT KEATS AIRPORT Lat: -14.25 Lon: 129.53 Height: 28.0 m
Data from the previous 72 hours. | See also: Recent months at Wadeye (Port Keats)
Date/Time
CST
Temp
°C
App
Temp
°C
Dew
Point
°C
Rel
Hum
%
Delta-T
°C
Wind Press
QNH
hPa
Press
MSL
hPa
Rain since
9am
mm
Dir  Spd
km/h
Gust
km/h
Spd
kts
Gust
kts
20/10:00pm 22.5 20.5 8.6 41 7.4 S 9 13 5 7 1014.5 1014.4 0.0
20/09:30pm 22.6 21.0 8.7 41 7.4 S 7 11 4 6 1014.2 1014.1 0.0
20/09:00pm 21.4 20.1 9.9 48 6.2 S 7 11 4 6 1013.7 1013.6 0.0
20/08:30pm 20.8 20.1 11.4 55 5.2 S 6 11 3 6 1013.4 1013.3 0.0
20/08:00pm 21.8 21.0 11.2 51 5.9 S 6 9 3 5 1013.0 1012.9 0.0
20/07:30pm 24.6 23.5 10.5 41 7.8 S 7 11 4 6 1012.6 1012.5 0.0
20/07:00pm 24.9 24.0 10.8 41 7.9 WSW 6 7 3 4 1012.2 1012.1 0.0
20/06:30pm 27.2 26.1 10.0 34 9.6 WNW 6 9 3 5 1011.9 1011.7 0.0
20/06:00pm 28.8 27.3 9.0 29 11.0 W 7 13 4 7 1011.5 1011.3 0.0
20/05:30pm 29.1 26.7 8.7 28 11.3 W 11 15 6 8 1011.2 1011.0 0.0
20/05:00pm 29.8 27.4 9.9 29 11.2 W 13 20 7 11 1011.0 1010.8 0.0
20/04:30pm 30.4 27.6 8.7 26 12.1 WNW 13 20 7 11 1010.8 1010.6 0.0
20/04:00pm 32.2 29.8 4.1 17 14.6 SSW 6 11 3 6 1010.9 1010.7 0.0
20/03:30pm 31.7 28.8 4.5 18 14.2 SSE 9 15 5 8 1011.0 1010.8 0.0
20/03:00pm 31.6 28.7 4.4 18 14.2 E 9 15 5 8 1011.2 1011.0 0.0
20/02:30pm 31.9 28.9 6.2 20 13.8 E 11 17 6 9 1011.5 1011.3 0.0
20/02:00pm 30.9 27.6 4.6 19 13.7 E 11 19 6 10 1012.0 1011.8 0.0
20/01:30pm 30.7 26.8 5.2 20 13.4 E 15 20 8 11 1012.6 1012.5 0.0
20/01:00pm 30.1 25.8 5.4 21 13.0 E 17 26 9 14 1013.0 1012.9 0.0
20/12:30pm 29.9 25.2 5.2 21 12.9 ESE 19 30 10 16 1013.4 1013.3 0.0
20/12:00pm 28.9 24.1 4.4 21 12.5 E 19 26 10 14 1013.9 1013.8 0.0
20/11:30am 28.7 24.1 5.5 23 12.1 E 19 28 10 15 1014.3 1014.2 0.0
20/11:00am 27.7 22.3 4.7 23 11.7 ESE 22 35 12 19 1014.6 1014.5 0.0
20/10:30am 27.5 22.7 5.7 25 11.3 E 20 32 11 17 1014.9 1014.8 0.0
20/10:00am 26.9 22.3 6.3 27 10.8 ESE 20 32 11 17 1015.1 1015.0 0.0
20/09:30am 25.8 20.6 5.4 27 10.4 ESE 22 35 12 19 1015.1 1015.0 0.0
20/09:00am 24.9 19.1 4.6 27 10.2 ESE 24 37 13 20 1015.0 1014.9 0.0
20/08:30am 24.1 18.6 4.0 27 9.9 ESE 22 32 12 17 1014.6 1014.5 0.0
20/08:00am 23.3 18.6 3.3 27 9.7 ESE 17 28 9 15 1014.3 1014.2 0.0
20/07:30am 22.1 18.0 2.2 27 9.3 SE 13 19 7 10 1014.0 1013.9 0.0
20/07:00am 21.9 17.8 2.1 27 9.3 SE 13 17 7 9 1013.5 1013.4 0.0
20/06:30am 22.1 18.3 1.7 26 9.5 SE 11 17 6 9 1013.3 1013.2 0.0
20/06:00am 22.5 18.0 2.1 26 9.6 SE 15 20 8 11 1012.9 1012.8 0.0
20/05:30am 23.1 18.2 2.0 25 9.9 SE 17 22 9 12 1012.7 1012.6 0.0
20/05:00am 23.1 18.2 2.0 25 9.9 SE 17 20 9 11 1012.3 1012.2 0.0
20/04:30am 23.5 18.6 1.8 24 10.2 SE 17 22 9 12 1012.2 1012.1 0.0
20/04:00am 23.5 19.0 2.4 25 10.0 SE 15 20 8 11 1012.2 1012.1 0.0
20/03:30am 20.6 17.4 5.0 36 7.7 SSE 11 17 6 9 1012.3 1012.2 0.0
20/03:00am 19.0 16.9 6.8 45 6.1 SSE 7 11 4 6 1012.5 1012.4 0.0
20/02:30am 21.1 18.1 4.2 33 8.2 SSE 9 11 5 6 1012.7 1012.6 0.0
20/02:00am 19.8 17.8 7.2 44 6.4 SSE 7 9 4 5 1012.9 1012.8 0.0
20/01:30am 20.6 18.3 7.6 43 6.7 S 9 11 5 6 1013.1 1013.0 0.0
20/01:00am 19.3 17.8 10.6 57 4.7 S 9 13 5 7 1013.1 1013.0 0.0
20/12:30am 17.7 17.8 14.0 79 2.1 S 6 9 3 5 1013.2 1013.1 0.0
20/12:00am 17.7 18.1 14.8 83 1.7 SSW 6 7 3 4 1013.3 1013.2 0.0
 
Date/Time
CST
Temp
°C
App
Temp
°C
Dew
Point
°C
Rel
Hum
%
Delta-T
°C
Wind Press
QNH
hPa
Press
MSL
hPa
Rain since
9am
mm
Dir  Spd
km/h
Gust
km/h
Spd
kts
Gust
kts
19/11:30pm 18.3 18.7 15.2 82 1.8 SSW 7 7 4 4 1013.4 1013.3 0.0
19/11:00pm 18.6 18.6 15.3 81 1.9 SSW 9 11 5 6 1013.4 1013.3 0.0
19/10:30pm 20.4 21.3 16.2 77 2.5 SE 6 7 3 4 1013.8 1013.7 0.0
19/10:00pm 20.6 21.5 16.0 75 2.8 S 6 7 3 4 1013.8 1013.7 0.0
19/09:30pm 21.6 23.7 16.3 72 3.2 CALM 0 6 0 3 1013.7 1013.6 0.0
19/09:00pm 21.8 22.9 17.2 75 2.8 SW 7 9 4 5 1013.5 1013.4 0.0
19/08:30pm 22.1 22.8 16.1 69 3.6 SW 7 9 4 5 1013.4 1013.3 0.0
19/08:00pm 22.8 23.3 15.6 64 4.3 WSW 7 9 4 5 1013.2 1013.1 0.0
19/07:30pm 24.1 24.7 15.3 58 5.3 WSW 6 9 3 5 1012.9 1012.8 0.0
19/07:00pm 25.4 26.0 15.4 54 6.1 WSW 6 7 3 4 1012.4 1012.3 0.0
19/06:30pm 27.4 27.8 14.8 46 7.6 W 6 9 3 5 1011.8 1011.6 0.0
19/06:00pm 30.2 30.4 14.3 38 9.6 WNW 6 9 3 5 1011.4 1011.2 0.0
19/05:30pm 30.5 29.4 11.9 31 10.9 W 9 15 5 8 1010.9 1010.7 0.0
19/05:00pm 30.8 28.8 10.2 28 11.7 WNW 11 17 6 9 1010.9 1010.7 0.0
19/04:30pm 31.1 28.5 9.3 26 12.3 WNW 13 20 7 11 1010.7 1010.5 0.0
19/04:00pm 31.1 29.0 11.0 29 11.6 W 13 19 7 10 1010.7 1010.5 0.0
19/03:30pm 31.3 29.0 11.7 30 11.5 WNW 15 20 8 11 1010.9 1010.7 0.0
19/03:00pm 33.5 30.3 5.1 17 15.1 ENE 11 22 6 12 1011.1 1010.9 0.0
19/02:30pm 33.2 29.6 4.9 17 15.0 E 13 20 7 11 1011.4 1011.2 0.0
19/02:00pm 33.6 29.8 6.0 18 14.9 SE 15 20 8 11 1011.8 1011.6 0.0
19/01:30pm 33.0 28.8 5.5 18 14.7 ENE 17 26 9 14 1012.5 1012.4 0.0
19/01:00pm 33.2 29.4 5.7 18 14.7 ESE 15 22 8 12 1013.0 1012.9 0.0
19/12:30pm 31.9 27.8 4.6 18 14.3 ESE 15 26 8 14 1013.4 1013.3 0.0
19/12:00pm 32.2 27.8 6.4 20 13.9 SE 19 26 10 14 1013.9 1013.8 0.0
19/11:30am 31.0 26.2 5.4 20 13.5 ESE 20 32 11 17 1014.3 1014.2 0.0
19/11:00am 30.6 25.6 4.4 19 13.6 ESE 20 30 11 16 1014.7 1014.6 0.0
19/10:30am 29.6 25.5 4.3 20 13.0 ESE 15 28 8 15 1015.0 1014.9 0.0
19/10:00am 27.9 23.5 2.9 20 12.4 SE 15 28 8 15 1015.2 1015.1 0.0
19/09:30am 27.2 23.1 2.3 20 12.1 ESE 13 17 7 9 1015.4 1015.3 0.0
19/09:00am 25.9 20.9 1.2 20 11.7 SE 17 20 9 11 1015.2 1015.1 0.0
19/08:30am 25.2 20.7 2.0 22 11.1 SE 15 20 8 11 1014.9 1014.8 0.0
19/08:00am 22.6 19.2 4.2 30 9.0 SSE 11 15 6 8 1014.5 1014.4 0.0
19/07:30am 22.1 18.7 4.2 31 8.7 SSE 11 15 6 8 1014.4 1014.3 0.0
19/07:00am 22.8 19.4 3.9 29 9.2 SSE 11 15 6 8 1014.3 1014.2 0.0
19/06:30am 23.6 19.4 4.0 28 9.6 SSE 15 22 8 12 1013.9 1013.8 0.0
19/06:00am 23.4 19.9 5.3 31 9.1 SSE 13 17 7 9 1013.8 1013.7 0.0
19/05:30am 23.0 20.0 5.9 33 8.7 SSE 11 17 6 9 1013.7 1013.6 0.0
19/05:00am 22.4 20.4 7.0 37 7.9 S 7 11 4 6 1013.7 1013.6 0.0
19/04:30am 22.6 20.3 7.6 38 7.8 S 9 13 5 7 1013.8 1013.7 0.0
19/04:00am 22.8 20.5 7.4 37 8.0 S 9 13 5 7 1013.7 1013.6 0.0
19/03:30am 23.3 21.1 7.8 37 8.1 S 9 13 5 7 1013.7 1013.6 0.0
19/03:00am 22.7 20.2 8.4 40 7.6 S 11 15 6 8 1013.8 1013.7 0.0
19/02:30am 22.3 20.9 10.8 48 6.3 S 9 15 5 8 1014.1 1014.0 0.0
19/02:00am 21.2 20.1 10.7 51 5.8 SSE 7 9 4 5 1014.3 1014.2 0.0
19/01:30am 21.1 20.3 11.7 55 5.2 S 7 11 4 6 1014.6 1014.5 0.0
19/01:00am 21.0 20.4 12.4 58 4.9 S 7 9 4 5 1014.6 1014.5 0.0
19/12:30am 20.4 20.6 12.9 62 4.3 S 4 7 2 4 1014.7 1014.6 0.0
19/12:00am 21.2 22.2 13.1 60 4.6 CALM 0 2 0 1 1014.8 1014.7 0.0
 
Date/Time
CST
Temp
°C
App
Temp
°C
Dew
Point
°C
Rel
Hum
%
Delta-T
°C
Wind Press
QNH
hPa
Press
MSL
hPa
Rain since
9am
mm
Dir  Spd
km/h
Gust
km/h
Spd
kts
Gust
kts
18/11:30pm 21.6 21.4 13.0 58 4.9 S 6 7 3 4 1014.9 1014.8 0.0
18/11:00pm 22.5 22.2 13.3 56 5.3 S 7 9 4 5 1015.0 1014.9 0.0
18/10:30pm 22.0 21.6 13.1 57 5.1 S 7 9 4 5 1015.0 1014.9 0.0
18/10:00pm 23.6 24.4 12.6 50 6.3 CALM 0 0 0 0 1014.9 1014.8 0.0
18/09:30pm 25.2 24.7 12.8 46 7.2 S 7 15 4 8 1014.7 1014.6 0.0
18/09:00pm 23.9 23.0 12.5 49 6.5 SSW 9 13 5 7 1014.3 1014.2 0.0
18/08:30pm 24.0 24.5 11.7 46 7.0 CALM 0 0 0 0 1014.1 1014.0 0.0
18/08:00pm 25.7 26.1 11.1 40 8.2 CALM 0 0 0 0 1013.8 1013.7 0.0
18/07:30pm 27.6 27.1 10.8 35 9.5 S 4 9 2 5 1013.6 1013.5 0.0
18/07:00pm 28.6 28.4 10.3 32 10.3 S 2 6 1 3 1013.3 1013.2 0.0
18/06:30pm 29.9 28.4 10.5 30 11.1 S 9 19 5 10 1012.9 1012.8 0.0
18/06:00pm 31.8 30.8 11.0 28 12.1 SSE 7 11 4 6 1012.5 1012.4 0.0
18/05:30pm 32.3 31.3 10.4 26 12.6 ENE 6 15 3 8 1012.2 1012.1 0.0
18/05:00pm 33.1 29.3 9.2 23 13.5 SE 19 28 10 15 1012.0 1011.8 0.0
18/04:30pm 33.3 30.9 10.0 24 13.4 SE 13 22 7 12 1012.0 1011.8 0.0
18/04:00pm 33.1 30.9 9.2 23 13.5 SSE 11 22 6 12 1012.1 1012.0 0.0
18/03:30pm 32.9 29.6 9.7 24 13.2 SE 17 30 9 16 1012.3 1012.2 0.0
18/03:00pm 33.1 31.0 9.8 24 13.3 SSE 11 20 6 11 1012.4 1012.3 0.0
18/02:30pm 32.6 29.6 9.4 24 13.2 SE 15 20 8 11 1012.9 1012.8 0.0
18/02:00pm 32.6 29.4 10.0 25 12.9 SSE 17 22 9 12 1013.4 1013.3 0.0
18/01:30pm 32.2 29.5 10.3 26 12.6 SSE 15 22 8 12 1013.8 1013.7 0.0
18/01:00pm 32.2 29.2 10.8 27 12.4 ESE 17 26 9 14 1014.4 1014.3 0.0
18/12:30pm 31.9 29.0 11.1 28 12.1 E 17 22 9 12 1015.1 1015.0 0.0
18/12:00pm 31.0 27.6 10.4 28 11.8 E 19 28 10 15 1015.5 1015.4 0.0
18/11:30am 30.8 27.2 10.7 29 11.5 E 20 33 11 18 1015.7 1015.6 0.0
18/11:00am 29.7 26.7 10.8 31 10.8 E 17 28 9 15 1016.1 1016.0 0.0
18/10:30am 28.9 25.9 10.6 32 10.4 ESE 17 24 9 13 1016.3 1016.2 0.0
18/10:00am 27.9 25.0 9.7 32 10.1 ESE 15 20 8 11 1016.3 1016.2 0.0
18/09:30am 26.4 22.7 7.9 31 9.9 ESE 17 24 9 13 1016.3 1016.2 0.0
18/09:00am 26.0 21.5 7.1 30 10.0 SE 20 24 11 13 1016.0 1015.9 0.0
18/08:30am 25.3 21.4 7.0 31 9.6 SE 17 22 9 12 1015.7 1015.6 0.0
18/08:00am 24.1 22.1 8.5 37 8.3 SE 9 15 5 8 1015.3 1015.2 0.0
18/07:30am 19.4 17.7 9.9 54 5.1 SE 9 11 5 6 1014.9 1014.8 0.0
18/07:00am 20.0 18.4 10.1 53 5.3 SE 9 13 5 7 1014.6 1014.5 0.0
18/06:30am 19.3 17.8 10.6 57 4.7 SE 9 13 5 7 1014.3 1014.2 0.0
18/06:00am 22.3 19.8 8.1 40 7.5 SE 11 15 6 8 1014.1 1014.0 0.0
18/05:30am 20.3 19.0 9.8 51 5.6 SE 7 7 4 4 1013.8 1013.7 0.0
18/05:00am 21.6 19.8 9.5 46 6.5 SSE 9 11 5 6 1013.7 1013.6 0.0
18/04:30am 20.5 19.4 10.0 51 5.7 S 6 11 3 6 1013.7 1013.6 0.0
18/04:00am 21.6 20.5 10.1 48 6.2 S 6 9 3 5 1013.7 1013.6 0.0
18/03:30am 21.5 20.4 10.6 50 6.0 S 7 9 4 5 1013.7 1013.6 0.0
18/03:00am 20.0 19.0 11.0 56 4.9 S 7 11 4 6 1013.6 1013.5 0.0
18/02:30am 21.2 20.4 11.8 55 5.3 S 7 11 4 6 1013.5 1013.4 0.0
18/02:00am 20.8 20.0 11.7 56 5.1 S 7 9 4 5 1013.6 1013.5 0.0
18/01:30am 22.3 21.4 11.4 50 6.1 S 7 11 4 6 1013.8 1013.7 0.0
18/01:00am 22.2 21.0 11.6 51 5.9 S 9 11 5 6 1013.9 1013.8 0.0
18/12:30am 22.6 21.5 12.0 51 6.0 S 9 13 5 7 1014.0 1013.9 0.0
18/12:00am 19.8 19.3 12.6 63 4.1 S 7 11 4 6 1014.1 1014.0 0.0
 
Date/Time
CST
Temp
°C
App
Temp
°C
Dew
Point
°C
Rel
Hum
%
Delta-T
°C
Wind Press
QNH
hPa
Press
MSL
hPa
Rain since
9am
mm
Dir  Spd
km/h
Gust
km/h
Spd
kts
Gust
kts
17/11:30pm 19.1 18.7 13.1 68 3.4 SSW 7 9 4 5 1014.3 1014.2 0.0
17/11:00pm 19.7 19.3 12.9 65 3.8 S 7 11 4 6 1014.4 1014.3 0.0
17/10:30pm 19.8 19.0 12.8 64 4.0 SSW 9 11 5 6 1014.2 1014.1 0.0

Other Formats:

Comma delimited format used in spreadsheet applications
http://www.bom.gov.au/fwo/IDD60801/IDD60801.95111.axf

JavaScript Object Notation format (JSON) in row-major order
http://www.bom.gov.au/fwo/IDD60801/IDD60801.95111.json